sensor_id;sensor_type;location;lat;lon;timestamp;P1;durP1;ratioP1;P2;durP2;ratioP2
22470;SDS011;11402;51.374;6.594;2023-04-03T00:01:32;9.95;;;5.97;;
22470;SDS011;11402;51.374;6.594;2023-04-03T00:03:58;8.82;;;6.05;;
22470;SDS011;11402;51.374;6.594;2023-04-03T00:06:23;7.95;;;5.93;;
22470;SDS011;11402;51.374;6.594;2023-04-03T00:08:49;10.32;;;6.43;;
22470;SDS011;11402;51.374;6.594;2023-04-03T00:11:17;9.80;;;6.50;;
22470;SDS011;11402;51.374;6.594;2023-04-03T00:13:43;11.90;;;7.40;;
22470;SDS011;11402;51.374;6.594;2023-04-03T00:16:09;7.97;;;6.40;;
22470;SDS011;11402;51.374;6.594;2023-04-03T00:18:36;10.25;;;6.90;;
22470;SDS011;11402;51.374;6.594;2023-04-03T00:21:03;9.88;;;6.53;;
22470;SDS011;11402;51.374;6.594;2023-04-03T00:23:30;10.35;;;6.82;;
22470;SDS011;11402;51.374;6.594;2023-04-03T00:25:55;14.10;;;9.63;;
22470;SDS011;11402;51.374;6.594;2023-04-03T00:28:21;12.40;;;7.90;;
22470;SDS011;11402;51.374;6.594;2023-04-03T00:30:50;11.90;;;7.53;;
22470;SDS011;11402;51.374;6.594;2023-04-03T00:33:15;10.48;;;7.05;;
22470;SDS011;11402;51.374;6.594;2023-04-03T00:35:41;9.20;;;7.22;;
22470;SDS011;11402;51.374;6.594;2023-04-03T00:38:07;10.02;;;6.93;;
22470;SDS011;11402;51.374;6.594;2023-04-03T00:40:37;11.73;;;7.28;;
22470;SDS011;11402;51.374;6.594;2023-04-03T00:43:16;9.80;;;6.65;;
22470;SDS011;11402;51.374;6.594;2023-04-03T00:45:52;10.73;;;6.72;;
22470;SDS011;11402;51.374;6.594;2023-04-03T00:48:41;10.57;;;6.78;;
22470;SDS011;11402;51.374;6.594;2023-04-03T00:51:16;7.07;;;5.18;;
22470;SDS011;11402;51.374;6.594;2023-04-03T00:53:50;9.85;;;7.03;;
22470;SDS011;11402;51.374;6.594;2023-04-03T00:56:21;9.40;;;6.60;;
22470;SDS011;11402;51.374;6.594;2023-04-03T00:58:57;9.73;;;6.75;;
22470;SDS011;11402;51.374;6.594;2023-04-03T01:01:30;10.70;;;7.55;;
22470;SDS011;11402;51.374;6.594;2023-04-03T01:03:58;11.95;;;7.60;;
22470;SDS011;11402;51.374;6.594;2023-04-03T01:06:27;10.45;;;7.68;;
22470;SDS011;11402;51.374;6.594;2023-04-03T01:08:56;12.25;;;6.40;;
22470;SDS011;11402;51.374;6.594;2023-04-03T01:11:23;12.40;;;8.90;;
22470;SDS011;11402;51.374;6.594;2023-04-03T01:13:48;11.60;;;8.55;;
22470;SDS011;11402;51.374;6.594;2023-04-03T01:16:14;15.23;;;8.82;;
22470;SDS011;11402;51.374;6.594;2023-04-03T01:18:40;14.50;;;9.75;;
22470;SDS011;11402;51.374;6.594;2023-04-03T01:26:47;14.63;;;8.88;;
22470;SDS011;11402;51.374;6.594;2023-04-03T01:29:14;15.10;;;9.02;;
22470;SDS011;11402;51.374;6.594;2023-04-03T01:34:26;12.23;;;8.77;;
22470;SDS011;11402;51.374;6.594;2023-04-03T01:36:53;13.43;;;9.48;;
22470;SDS011;11402;51.374;6.594;2023-04-03T01:39:19;15.43;;;8.98;;
22470;SDS011;11402;51.374;6.594;2023-04-03T01:41:44;12.25;;;9.10;;
22470;SDS011;11402;51.374;6.594;2023-04-03T01:44:10;14.32;;;9.70;;
22470;SDS011;11402;51.374;6.594;2023-04-03T01:46:36;17.23;;;10.00;;
22470;SDS011;11402;51.374;6.594;2023-04-03T01:49:03;13.32;;;9.25;;
22470;SDS011;11402;51.374;6.594;2023-04-03T01:51:29;13.73;;;10.07;;
22470;SDS011;11402;51.374;6.594;2023-04-03T01:53:55;17.17;;;10.13;;
22470;SDS011;11402;51.374;6.594;2023-04-03T01:56:20;14.10;;;9.85;;
22470;SDS011;11402;51.374;6.594;2023-04-03T01:58:46;17.95;;;9.68;;
22470;SDS011;11402;51.374;6.594;2023-04-03T02:01:12;15.52;;;10.00;;
22470;SDS011;11402;51.374;6.594;2023-04-03T02:03:37;16.48;;;9.88;;
22470;SDS011;11402;51.374;6.594;2023-04-03T02:06:03;13.20;;;8.93;;
22470;SDS011;11402;51.374;6.594;2023-04-03T02:08:29;17.48;;;9.70;;
22470;SDS011;11402;51.374;6.594;2023-04-03T02:10:55;18.20;;;9.65;;
22470;SDS011;11402;51.374;6.594;2023-04-03T02:13:20;14.32;;;9.60;;
22470;SDS011;11402;51.374;6.594;2023-04-03T02:15:46;20.10;;;10.00;;
22470;SDS011;11402;51.374;6.594;2023-04-03T02:18:14;15.05;;;8.93;;
22470;SDS011;11402;51.374;6.594;2023-04-03T02:20:40;16.70;;;9.90;;
22470;SDS011;11402;51.374;6.594;2023-04-03T02:23:06;14.38;;;8.93;;
22470;SDS011;11402;51.374;6.594;2023-04-03T02:25:31;13.73;;;9.43;;
22470;SDS011;11402;51.374;6.594;2023-04-03T02:27:58;16.75;;;8.88;;
22470;SDS011;11402;51.374;6.594;2023-04-03T02:30:23;15.00;;;9.32;;
22470;SDS011;11402;51.374;6.594;2023-04-03T02:32:49;15.40;;;9.90;;
22470;SDS011;11402;51.374;6.594;2023-04-03T02:35:15;15.38;;;8.98;;
22470;SDS011;11402;51.374;6.594;2023-04-03T02:37:41;14.73;;;8.45;;
22470;SDS011;11402;51.374;6.594;2023-04-03T02:40:06;15.65;;;8.32;;
22470;SDS011;11402;51.374;6.594;2023-04-03T02:42:32;18.80;;;8.30;;
22470;SDS011;11402;51.374;6.594;2023-04-03T02:44:58;15.93;;;8.02;;
22470;SDS011;11402;51.374;6.594;2023-04-03T02:47:25;16.90;;;7.65;;
22470;SDS011;11402;51.374;6.594;2023-04-03T02:49:51;13.52;;;7.20;;
22470;SDS011;11402;51.374;6.594;2023-04-03T02:52:17;15.05;;;7.32;;
22470;SDS011;11402;51.374;6.594;2023-04-03T02:54:43;12.38;;;6.82;;
22470;SDS011;11402;51.374;6.594;2023-04-03T02:57:08;11.57;;;6.47;;
22470;SDS011;11402;51.374;6.594;2023-04-03T02:59:35;10.65;;;6.68;;
22470;SDS011;11402;51.374;6.594;2023-04-03T03:02:01;11.82;;;6.50;;
22470;SDS011;11402;51.374;6.594;2023-04-03T03:04:27;10.80;;;6.70;;
22470;SDS011;11402;51.374;6.594;2023-04-03T03:06:52;12.95;;;6.43;;
22470;SDS011;11402;51.374;6.594;2023-04-03T03:09:18;12.30;;;6.45;;
22470;SDS011;11402;51.374;6.594;2023-04-03T03:11:43;14.10;;;6.22;;
22470;SDS011;11402;51.374;6.594;2023-04-03T03:14:09;9.77;;;5.45;;
22470;SDS011;11402;51.374;6.594;2023-04-03T03:16:35;10.43;;;5.80;;
22470;SDS011;11402;51.374;6.594;2023-04-03T03:19:00;10.10;;;5.55;;
22470;SDS011;11402;51.374;6.594;2023-04-03T03:21:26;12.25;;;5.72;;
22470;SDS011;11402;51.374;6.594;2023-04-03T03:23:51;9.40;;;5.30;;
22470;SDS011;11402;51.374;6.594;2023-04-03T03:26:17;14.57;;;4.93;;
22470;SDS011;11402;51.374;6.594;2023-04-03T03:28:43;8.85;;;4.60;;
22470;SDS011;11402;51.374;6.594;2023-04-03T03:31:08;7.80;;;4.38;;
22470;SDS011;11402;51.374;6.594;2023-04-03T03:33:35;8.23;;;4.35;;
22470;SDS011;11402;51.374;6.594;2023-04-03T03:36:00;8.95;;;4.25;;
22470;SDS011;11402;51.374;6.594;2023-04-03T03:38:26;8.70;;;4.40;;
22470;SDS011;11402;51.374;6.594;2023-04-03T03:40:52;11.07;;;4.10;;
22470;SDS011;11402;51.374;6.594;2023-04-03T03:43:18;8.00;;;3.75;;
22470;SDS011;11402;51.374;6.594;2023-04-03T03:45:44;6.53;;;3.42;;
22470;SDS011;11402;51.374;6.594;2023-04-03T03:48:11;9.25;;;3.67;;
22470;SDS011;11402;51.374;6.594;2023-04-03T03:50:36;8.07;;;3.63;;
22470;SDS011;11402;51.374;6.594;2023-04-03T03:53:02;9.95;;;2.90;;
22470;SDS011;11402;51.374;6.594;2023-04-03T03:55:27;10.35;;;3.70;;
22470;SDS011;11402;51.374;6.594;2023-04-03T03:57:53;6.45;;;2.75;;
22470;SDS011;11402;51.374;6.594;2023-04-03T04:00:19;6.45;;;2.80;;
22470;SDS011;11402;51.374;6.594;2023-04-03T04:02:44;9.63;;;3.47;;
22470;SDS011;11402;51.374;6.594;2023-04-03T04:05:10;9.55;;;4.43;;
22470;SDS011;11402;51.374;6.594;2023-04-03T04:07:36;10.25;;;3.05;;
22470;SDS011;11402;51.374;6.594;2023-04-03T04:10:02;4.90;;;2.50;;
22470;SDS011;11402;51.374;6.594;2023-04-03T04:12:28;9.10;;;3.22;;
22470;SDS011;11402;51.374;6.594;2023-04-03T04:14:54;8.20;;;2.70;;
22470;SDS011;11402;51.374;6.594;2023-04-03T04:17:19;7.45;;;2.83;;
22470;SDS011;11402;51.374;6.594;2023-04-03T04:19:45;5.75;;;3.38;;
22470;SDS011;11402;51.374;6.594;2023-04-03T04:22:11;7.90;;;2.97;;
22470;SDS011;11402;51.374;6.594;2023-04-03T04:24:36;11.13;;;3.55;;
22470;SDS011;11402;51.374;6.594;2023-04-03T04:27:02;8.20;;;2.90;;
22470;SDS011;11402;51.374;6.594;2023-04-03T04:29:28;10.32;;;3.38;;
22470;SDS011;11402;51.374;6.594;2023-04-03T04:31:53;8.25;;;3.50;;
22470;SDS011;11402;51.374;6.594;2023-04-03T04:34:19;9.02;;;3.55;;
22470;SDS011;11402;51.374;6.594;2023-04-03T04:36:45;13.23;;;3.50;;
22470;SDS011;11402;51.374;6.594;2023-04-03T04:39:10;9.52;;;3.13;;
22470;SDS011;11402;51.374;6.594;2023-04-03T04:41:36;8.30;;;3.17;;
22470;SDS011;11402;51.374;6.594;2023-04-03T04:44:02;10.95;;;3.20;;
22470;SDS011;11402;51.374;6.594;2023-04-03T04:46:27;10.68;;;3.42;;
22470;SDS011;11402;51.374;6.594;2023-04-03T04:48:53;6.78;;;3.75;;
22470;SDS011;11402;51.374;6.594;2023-04-03T04:51:18;9.07;;;4.03;;
22470;SDS011;11402;51.374;6.594;2023-04-03T04:53:44;12.75;;;3.63;;
22470;SDS011;11402;51.374;6.594;2023-04-03T04:56:10;13.18;;;4.50;;
22470;SDS011;11402;51.374;6.594;2023-04-03T04:58:36;10.77;;;4.15;;
22470;SDS011;11402;51.374;6.594;2023-04-03T05:01:02;10.23;;;3.90;;
22470;SDS011;11402;51.374;6.594;2023-04-03T05:03:30;7.55;;;3.38;;
22470;SDS011;11402;51.374;6.594;2023-04-03T05:05:56;12.93;;;4.07;;
22470;SDS011;11402;51.374;6.594;2023-04-03T05:08:22;9.05;;;4.05;;
22470;SDS011;11402;51.374;6.594;2023-04-03T05:10:47;10.27;;;3.90;;
22470;SDS011;11402;51.374;6.594;2023-04-03T05:13:13;9.77;;;3.95;;
22470;SDS011;11402;51.374;6.594;2023-04-03T05:15:39;10.27;;;4.05;;
22470;SDS011;11402;51.374;6.594;2023-04-03T05:18:05;11.98;;;4.43;;
22470;SDS011;11402;51.374;6.594;2023-04-03T05:20:31;11.60;;;4.57;;
22470;SDS011;11402;51.374;6.594;2023-04-03T05:22:57;12.15;;;4.00;;
22470;SDS011;11402;51.374;6.594;2023-04-03T05:25:22;12.00;;;4.07;;
22470;SDS011;11402;51.374;6.594;2023-04-03T05:27:48;12.98;;;4.18;;
22470;SDS011;11402;51.374;6.594;2023-04-03T05:30:14;11.90;;;3.97;;
22470;SDS011;11402;51.374;6.594;2023-04-03T05:32:40;11.30;;;3.78;;
22470;SDS011;11402;51.374;6.594;2023-04-03T05:35:06;9.50;;;3.50;;
22470;SDS011;11402;51.374;6.594;2023-04-03T05:37:32;10.90;;;3.75;;
22470;SDS011;11402;51.374;6.594;2023-04-03T05:39:58;11.25;;;4.10;;
22470;SDS011;11402;51.374;6.594;2023-04-03T05:42:24;9.60;;;3.72;;
22470;SDS011;11402;51.374;6.594;2023-04-03T05:44:50;10.15;;;3.63;;
22470;SDS011;11402;51.374;6.594;2023-04-03T05:47:16;8.38;;;3.25;;
22470;SDS011;11402;51.374;6.594;2023-04-03T05:49:42;10.52;;;3.25;;
22470;SDS011;11402;51.374;6.594;2023-04-03T05:52:25;11.40;;;2.95;;
22470;SDS011;11402;51.374;6.594;2023-04-03T05:54:53;11.10;;;2.78;;
22470;SDS011;11402;51.374;6.594;2023-04-03T05:57:20;6.15;;;2.42;;
22470;SDS011;11402;51.374;6.594;2023-04-03T05:59:45;8.93;;;2.72;;
22470;SDS011;11402;51.374;6.594;2023-04-03T06:02:13;11.13;;;2.92;;
22470;SDS011;11402;51.374;6.594;2023-04-03T06:04:46;7.63;;;2.67;;
22470;SDS011;11402;51.374;6.594;2023-04-03T06:07:13;5.78;;;2.55;;
22470;SDS011;11402;51.374;6.594;2023-04-03T06:09:41;6.32;;;2.50;;
22470;SDS011;11402;51.374;6.594;2023-04-03T06:12:06;6.55;;;2.67;;
22470;SDS011;11402;51.374;6.594;2023-04-03T06:14:32;8.10;;;2.67;;
22470;SDS011;11402;51.374;6.594;2023-04-03T06:16:58;5.35;;;3.05;;
22470;SDS011;11402;51.374;6.594;2023-04-03T06:19:24;8.30;;;2.83;;
22470;SDS011;11402;51.374;6.594;2023-04-03T06:21:50;5.53;;;2.88;;
22470;SDS011;11402;51.374;6.594;2023-04-03T06:24:16;9.10;;;3.33;;
22470;SDS011;11402;51.374;6.594;2023-04-03T06:26:43;9.77;;;3.00;;
22470;SDS011;11402;51.374;6.594;2023-04-03T06:29:09;8.27;;;3.10;;
22470;SDS011;11402;51.374;6.594;2023-04-03T06:31:35;7.00;;;2.70;;
22470;SDS011;11402;51.374;6.594;2023-04-03T06:34:04;7.70;;;2.60;;
22470;SDS011;11402;51.374;6.594;2023-04-03T06:36:31;11.68;;;3.17;;
22470;SDS011;11402;51.374;6.594;2023-04-03T06:38:56;7.82;;;3.17;;
22470;SDS011;11402;51.374;6.594;2023-04-03T06:41:22;8.35;;;2.85;;
22470;SDS011;11402;51.374;6.594;2023-04-03T06:43:48;10.95;;;3.42;;
22470;SDS011;11402;51.374;6.594;2023-04-03T06:46:14;6.18;;;2.67;;
22470;SDS011;11402;51.374;6.594;2023-04-03T06:48:41;6.07;;;2.40;;
22470;SDS011;11402;51.374;6.594;2023-04-03T06:51:10;6.97;;;2.70;;
22470;SDS011;11402;51.374;6.594;2023-04-03T06:53:55;5.68;;;2.28;;
22470;SDS011;11402;51.374;6.594;2023-04-03T06:56:22;6.25;;;2.75;;
22470;SDS011;11402;51.374;6.594;2023-04-03T06:58:49;5.03;;;2.60;;
22470;SDS011;11402;51.374;6.594;2023-04-03T07:01:16;8.07;;;2.58;;
22470;SDS011;11402;51.374;6.594;2023-04-03T07:03:44;6.38;;;2.70;;
22470;SDS011;11402;51.374;6.594;2023-04-03T07:06:11;8.45;;;3.00;;
22470;SDS011;11402;51.374;6.594;2023-04-03T07:08:38;5.82;;;2.90;;
22470;SDS011;11402;51.374;6.594;2023-04-03T07:11:04;8.50;;;3.22;;
22470;SDS011;11402;51.374;6.594;2023-04-03T07:13:30;8.70;;;2.65;;
22470;SDS011;11402;51.374;6.594;2023-04-03T07:15:57;6.63;;;1.73;;
22470;SDS011;11402;51.374;6.594;2023-04-03T07:18:23;8.00;;;2.75;;
22470;SDS011;11402;51.374;6.594;2023-04-03T07:20:49;8.45;;;2.90;;
22470;SDS011;11402;51.374;6.594;2023-04-03T07:23:15;8.93;;;3.38;;
22470;SDS011;11402;51.374;6.594;2023-04-03T07:25:45;7.47;;;3.05;;
22470;SDS011;11402;51.374;6.594;2023-04-03T07:28:11;13.73;;;3.67;;
22470;SDS011;11402;51.374;6.594;2023-04-03T07:30:47;15.27;;;4.00;;
22470;SDS011;11402;51.374;6.594;2023-04-03T07:33:15;11.38;;;2.90;;
22470;SDS011;11402;51.374;6.594;2023-04-03T07:35:43;10.98;;;3.35;;
22470;SDS011;11402;51.374;6.594;2023-04-03T07:38:09;9.27;;;3.72;;
22470;SDS011;11402;51.374;6.594;2023-04-03T07:40:35;11.32;;;3.40;;
22470;SDS011;11402;51.374;6.594;2023-04-03T07:43:01;7.20;;;2.35;;
22470;SDS011;11402;51.374;6.594;2023-04-03T07:45:27;9.68;;;2.80;;
22470;SDS011;11402;51.374;6.594;2023-04-03T07:47:53;11.30;;;4.40;;
22470;SDS011;11402;51.374;6.594;2023-04-03T07:50:19;12.55;;;3.65;;
22470;SDS011;11402;51.374;6.594;2023-04-03T07:52:45;11.57;;;3.75;;
22470;SDS011;11402;51.374;6.594;2023-04-03T07:55:11;12.82;;;3.63;;
22470;SDS011;11402;51.374;6.594;2023-04-03T07:57:37;10.30;;;3.60;;
22470;SDS011;11402;51.374;6.594;2023-04-03T08:00:05;11.88;;;3.30;;
22470;SDS011;11402;51.374;6.594;2023-04-03T08:02:32;10.73;;;3.50;;
22470;SDS011;11402;51.374;6.594;2023-04-03T08:04:58;7.15;;;2.92;;
22470;SDS011;11402;51.374;6.594;2023-04-03T08:07:23;6.72;;;2.83;;
22470;SDS011;11402;51.374;6.594;2023-04-03T08:09:50;10.80;;;3.45;;
22470;SDS011;11402;51.374;6.594;2023-04-03T08:12:15;8.68;;;2.65;;
22470;SDS011;11402;51.374;6.594;2023-04-03T08:14:41;5.07;;;1.75;;
22470;SDS011;11402;51.374;6.594;2023-04-03T08:17:07;6.25;;;2.10;;
22470;SDS011;11402;51.374;6.594;2023-04-03T08:19:36;5.40;;;2.28;;
22470;SDS011;11402;51.374;6.594;2023-04-03T08:22:03;5.75;;;1.73;;
22470;SDS011;11402;51.374;6.594;2023-04-03T08:24:29;4.85;;;2.20;;
22470;SDS011;11402;51.374;6.594;2023-04-03T08:26:56;4.95;;;2.20;;
22470;SDS011;11402;51.374;6.594;2023-04-03T08:29:22;5.32;;;1.70;;
22470;SDS011;11402;51.374;6.594;2023-04-03T08:31:48;4.13;;;1.80;;
22470;SDS011;11402;51.374;6.594;2023-04-03T08:34:15;5.05;;;1.92;;
22470;SDS011;11402;51.374;6.594;2023-04-03T08:36:41;5.30;;;2.20;;
22470;SDS011;11402;51.374;6.594;2023-04-03T08:39:07;6.18;;;2.67;;
22470;SDS011;11402;51.374;6.594;2023-04-03T08:41:36;4.57;;;1.90;;
22470;SDS011;11402;51.374;6.594;2023-04-03T08:52:39;6.97;;;2.10;;
22470;SDS011;11402;51.374;6.594;2023-04-03T08:58:18;6.32;;;2.45;;
22470;SDS011;11402;51.374;6.594;2023-04-03T09:01:35;9.57;;;3.00;;
22470;SDS011;11402;51.374;6.594;2023-04-03T09:03:46;4.45;;;1.77;;
22470;SDS011;11402;51.374;6.594;2023-04-03T09:08:45;8.23;;;1.63;;
22470;SDS011;11402;51.374;6.594;2023-04-03T09:11:25;4.97;;;1.98;;
22470;SDS011;11402;51.374;6.594;2023-04-03T09:14:18;4.00;;;1.50;;
22470;SDS011;11402;51.374;6.594;2023-04-03T09:22:00;5.53;;;1.70;;
22470;SDS011;11402;51.374;6.594;2023-04-03T09:24:35;4.85;;;1.85;;
22470;SDS011;11402;51.374;6.594;2023-04-03T09:27:06;9.48;;;4.45;;
22470;SDS011;11402;51.374;6.594;2023-04-03T09:29:37;3.78;;;1.50;;
22470;SDS011;11402;51.374;6.594;2023-04-03T09:32:21;2.60;;;1.50;;
22470;SDS011;11402;51.374;6.594;2023-04-03T09:34:53;4.93;;;1.15;;
22470;SDS011;11402;51.374;6.594;2023-04-03T09:43:00;5.05;;;1.20;;
22470;SDS011;11402;51.374;6.594;2023-04-03T09:45:47;7.40;;;1.02;;
22470;SDS011;11402;51.374;6.594;2023-04-03T09:53:28;2.78;;;1.10;;
22470;SDS011;11402;51.374;6.594;2023-04-03T09:55:56;2.53;;;0.70;;
22470;SDS011;11402;51.374;6.594;2023-04-03T09:58:27;4.90;;;1.10;;
22470;SDS011;11402;51.374;6.594;2023-04-03T10:00:59;4.22;;;1.17;;
22470;SDS011;11402;51.374;6.594;2023-04-03T10:03:30;2.47;;;0.88;;
22470;SDS011;11402;51.374;6.594;2023-04-03T10:05:58;2.75;;;0.93;;
22470;SDS011;11402;51.374;6.594;2023-04-03T10:08:25;5.05;;;1.55;;
22470;SDS011;11402;51.374;6.594;2023-04-03T10:11:06;3.83;;;1.20;;
22470;SDS011;11402;51.374;6.594;2023-04-03T10:13:34;3.13;;;1.15;;
22470;SDS011;11402;51.374;6.594;2023-04-03T10:26:39;2.42;;;0.90;;
22470;SDS011;11402;51.374;6.594;2023-04-03T10:31:46;2.00;;;0.98;;
22470;SDS011;11402;51.374;6.594;2023-04-03T10:34:23;2.00;;;0.80;;
22470;SDS011;11402;51.374;6.594;2023-04-03T10:36:57;1.75;;;0.85;;
22470;SDS011;11402;51.374;6.594;2023-04-03T10:45:08;3.13;;;1.00;;
22470;SDS011;11402;51.374;6.594;2023-04-03T10:48:04;8.02;;;1.33;;
22470;SDS011;11402;51.374;6.594;2023-04-03T10:50:52;4.28;;;1.08;;
22470;SDS011;11402;51.374;6.594;2023-04-03T10:56:13;2.33;;;1.10;;
22470;SDS011;11402;51.374;6.594;2023-04-03T11:01:35;5.75;;;1.00;;
22470;SDS011;11402;51.374;6.594;2023-04-03T11:07:32;4.88;;;1.25;;
22470;SDS011;11402;51.374;6.594;2023-04-03T11:09:44;3.88;;;1.38;;
22470;SDS011;11402;51.374;6.594;2023-04-03T11:12:15;3.75;;;1.05;;
22470;SDS011;11402;51.374;6.594;2023-04-03T11:15:15;3.42;;;1.10;;
22470;SDS011;11402;51.374;6.594;2023-04-03T11:17:54;2.75;;;1.10;;
22470;SDS011;11402;51.374;6.594;2023-04-03T11:20:24;2.53;;;1.10;;
22470;SDS011;11402;51.374;6.594;2023-04-03T11:23:00;2.50;;;1.27;;
22470;SDS011;11402;51.374;6.594;2023-04-03T11:25:45;3.95;;;1.90;;
22470;SDS011;11402;51.374;6.594;2023-04-03T11:28:14;4.05;;;1.15;;
22470;SDS011;11402;51.374;6.594;2023-04-03T11:30:52;2.40;;;1.20;;
22470;SDS011;11402;51.374;6.594;2023-04-03T11:36:23;6.85;;;1.20;;
22470;SDS011;11402;51.374;6.594;2023-04-03T11:38:52;5.00;;;1.73;;
22470;SDS011;11402;51.374;6.594;2023-04-03T11:41:27;2.80;;;1.20;;
22470;SDS011;11402;51.374;6.594;2023-04-03T11:43:56;4.73;;;1.77;;
22470;SDS011;11402;51.374;6.594;2023-04-03T12:05:48;3.40;;;1.20;;
22470;SDS011;11402;51.374;6.594;2023-04-03T12:16:22;7.20;;;2.45;;
22470;SDS011;11402;51.374;6.594;2023-04-03T12:22:04;4.68;;;1.80;;
22470;SDS011;11402;51.374;6.594;2023-04-03T12:34:55;3.55;;;1.40;;
22470;SDS011;11402;51.374;6.594;2023-04-03T12:37:53;3.88;;;1.45;;
22470;SDS011;11402;51.374;6.594;2023-04-03T12:46:35;4.95;;;1.35;;
22470;SDS011;11402;51.374;6.594;2023-04-03T12:49:12;3.63;;;1.48;;
22470;SDS011;11402;51.374;6.594;2023-04-03T12:52:00;3.80;;;0.95;;
22470;SDS011;11402;51.374;6.594;2023-04-03T12:54:37;6.65;;;1.50;;
22470;SDS011;11402;51.374;6.594;2023-04-03T12:57:17;4.68;;;1.40;;
22470;SDS011;11402;51.374;6.594;2023-04-03T12:59:44;2.53;;;1.17;;
22470;SDS011;11402;51.374;6.594;2023-04-03T13:02:20;2.47;;;1.30;;
22470;SDS011;11402;51.374;6.594;2023-04-03T13:04:53;3.38;;;1.50;;
22470;SDS011;11402;51.374;6.594;2023-04-03T13:07:32;2.80;;;1.38;;
22470;SDS011;11402;51.374;6.594;2023-04-03T13:12:34;4.25;;;1.45;;
22470;SDS011;11402;51.374;6.594;2023-04-03T13:15:29;4.28;;;1.40;;
22470;SDS011;11402;51.374;6.594;2023-04-03T13:18:05;4.93;;;1.58;;
22470;SDS011;11402;51.374;6.594;2023-04-03T13:21:17;4.15;;;1.42;;
22470;SDS011;11402;51.374;6.594;2023-04-03T13:23:48;6.55;;;1.70;;
22470;SDS011;11402;51.374;6.594;2023-04-03T13:26:17;3.08;;;1.30;;
22470;SDS011;11402;51.374;6.594;2023-04-03T13:28:44;2.35;;;1.30;;
22470;SDS011;11402;51.374;6.594;2023-04-03T13:33:39;5.75;;;1.55;;
22470;SDS011;11402;51.374;6.594;2023-04-03T13:36:19;3.47;;;1.23;;
22470;SDS011;11402;51.374;6.594;2023-04-03T13:39:02;3.72;;;1.38;;
22470;SDS011;11402;51.374;6.594;2023-04-03T13:41:35;2.67;;;1.30;;
22470;SDS011;11402;51.374;6.594;2023-04-03T13:46:46;4.05;;;1.30;;
22470;SDS011;11402;51.374;6.594;2023-04-03T13:49:26;3.80;;;1.30;;
22470;SDS011;11402;51.374;6.594;2023-04-03T13:52:00;4.93;;;1.45;;
22470;SDS011;11402;51.374;6.594;2023-04-03T13:54:49;4.28;;;1.90;;
22470;SDS011;11402;51.374;6.594;2023-04-03T13:57:21;3.33;;;1.17;;
22470;SDS011;11402;51.374;6.594;2023-04-03T13:59:47;7.15;;;1.80;;
22470;SDS011;11402;51.374;6.594;2023-04-03T14:02:19;3.58;;;1.30;;
22470;SDS011;11402;51.374;6.594;2023-04-03T14:04:49;10.85;;;6.80;;
22470;SDS011;11402;51.374;6.594;2023-04-03T14:07:21;4.88;;;1.40;;
22470;SDS011;11402;51.374;6.594;2023-04-03T14:09:47;3.50;;;1.85;;
22470;SDS011;11402;51.374;6.594;2023-04-03T14:12:32;2.53;;;1.10;;
22470;SDS011;11402;51.374;6.594;2023-04-03T14:15:02;3.17;;;1.50;;
22470;SDS011;11402;51.374;6.594;2023-04-03T14:17:30;2.33;;;1.35;;
22470;SDS011;11402;51.374;6.594;2023-04-03T14:19:56;2.53;;;1.23;;
22470;SDS011;11402;51.374;6.594;2023-04-03T14:24:50;4.05;;;1.17;;
22470;SDS011;11402;51.374;6.594;2023-04-03T14:27:19;3.08;;;1.30;;
22470;SDS011;11402;51.374;6.594;2023-04-03T14:29:49;3.50;;;1.25;;
22470;SDS011;11402;51.374;6.594;2023-04-03T14:32:17;4.13;;;1.60;;
22470;SDS011;11402;51.374;6.594;2023-04-03T14:34:44;4.65;;;1.50;;
22470;SDS011;11402;51.374;6.594;2023-04-03T14:37:14;4.32;;;1.40;;
22470;SDS011;11402;51.374;6.594;2023-04-03T14:39:42;4.35;;;1.48;;
22470;SDS011;11402;51.374;6.594;2023-04-03T14:42:14;3.13;;;1.20;;
22470;SDS011;11402;51.374;6.594;2023-04-03T14:44:42;3.63;;;1.40;;
22470;SDS011;11402;51.374;6.594;2023-04-03T14:47:19;3.10;;;1.20;;
22470;SDS011;11402;51.374;6.594;2023-04-03T14:49:46;4.97;;;1.17;;
22470;SDS011;11402;51.374;6.594;2023-04-03T14:52:20;4.82;;;1.38;;
22470;SDS011;11402;51.374;6.594;2023-04-03T14:54:51;11.93;;;7.32;;
22470;SDS011;11402;51.374;6.594;2023-04-03T14:57:18;6.03;;;1.92;;
22470;SDS011;11402;51.374;6.594;2023-04-03T14:59:53;3.20;;;1.30;;
22470;SDS011;11402;51.374;6.594;2023-04-03T15:02:29;3.00;;;1.10;;
22470;SDS011;11402;51.374;6.594;2023-04-03T15:04:58;4.00;;;1.30;;
22470;SDS011;11402;51.374;6.594;2023-04-03T15:07:26;5.65;;;1.38;;
22470;SDS011;11402;51.374;6.594;2023-04-03T15:09:53;3.05;;;1.38;;
22470;SDS011;11402;51.374;6.594;2023-04-03T15:12:21;4.90;;;1.40;;
22470;SDS011;11402;51.374;6.594;2023-04-03T15:14:47;3.20;;;1.35;;
22470;SDS011;11402;51.374;6.594;2023-04-03T15:17:17;3.30;;;1.10;;
22470;SDS011;11402;51.374;6.594;2023-04-03T15:19:46;4.30;;;1.60;;
22470;SDS011;11402;51.374;6.594;2023-04-03T15:22:13;3.40;;;1.25;;
22470;SDS011;11402;51.374;6.594;2023-04-03T15:24:40;5.15;;;1.20;;
22470;SDS011;11402;51.374;6.594;2023-04-03T15:27:05;4.63;;;1.10;;
22470;SDS011;11402;51.374;6.594;2023-04-03T15:29:31;4.80;;;1.35;;
22470;SDS011;11402;51.374;6.594;2023-04-03T15:31:57;4.25;;;1.48;;
22470;SDS011;11402;51.374;6.594;2023-04-03T15:34:22;6.68;;;2.55;;
22470;SDS011;11402;51.374;6.594;2023-04-03T15:36:48;7.57;;;2.33;;
22470;SDS011;11402;51.374;6.594;2023-04-03T15:39:14;5.47;;;1.52;;
22470;SDS011;11402;51.374;6.594;2023-04-03T15:41:41;5.10;;;1.55;;
22470;SDS011;11402;51.374;6.594;2023-04-03T15:44:07;6.40;;;2.05;;
22470;SDS011;11402;51.374;6.594;2023-04-03T15:46:32;3.10;;;1.20;;
22470;SDS011;11402;51.374;6.594;2023-04-03T15:48:58;4.22;;;1.38;;
22470;SDS011;11402;51.374;6.594;2023-04-03T15:51:23;4.43;;;1.90;;
22470;SDS011;11402;51.374;6.594;2023-04-03T15:53:49;6.65;;;1.70;;
22470;SDS011;11402;51.374;6.594;2023-04-03T15:56:15;5.25;;;1.73;;
22470;SDS011;11402;51.374;6.594;2023-04-03T15:58:40;3.40;;;1.77;;
22470;SDS011;11402;51.374;6.594;2023-04-03T16:01:06;3.70;;;1.40;;
22470;SDS011;11402;51.374;6.594;2023-04-03T16:03:34;3.58;;;1.80;;
22470;SDS011;11402;51.374;6.594;2023-04-03T16:06:00;3.05;;;1.10;;
22470;SDS011;11402;51.374;6.594;2023-04-03T16:08:26;2.03;;;1.10;;
22470;SDS011;11402;51.374;6.594;2023-04-03T16:10:52;7.88;;;1.20;;
22470;SDS011;11402;51.374;6.594;2023-04-03T16:13:18;3.75;;;1.40;;
22470;SDS011;11402;51.374;6.594;2023-04-03T16:15:43;2.95;;;1.10;;
22470;SDS011;11402;51.374;6.594;2023-04-03T16:18:09;4.20;;;1.40;;
22470;SDS011;11402;51.374;6.594;2023-04-03T16:20:35;4.43;;;1.45;;
22470;SDS011;11402;51.374;6.594;2023-04-03T16:23:01;6.18;;;1.35;;
22470;SDS011;11402;51.374;6.594;2023-04-03T16:25:27;2.88;;;1.20;;
22470;SDS011;11402;51.374;6.594;2023-04-03T16:27:53;4.60;;;1.48;;
22470;SDS011;11402;51.374;6.594;2023-04-03T16:30:19;4.13;;;1.65;;
22470;SDS011;11402;51.374;6.594;2023-04-03T16:32:45;6.53;;;1.70;;
22470;SDS011;11402;51.374;6.594;2023-04-03T16:35:11;4.03;;;1.52;;
22470;SDS011;11402;51.374;6.594;2023-04-03T16:37:37;3.28;;;1.58;;
22470;SDS011;11402;51.374;6.594;2023-04-03T16:40:04;3.67;;;1.42;;
22470;SDS011;11402;51.374;6.594;2023-04-03T16:42:30;4.43;;;1.25;;
22470;SDS011;11402;51.374;6.594;2023-04-03T16:44:56;3.85;;;1.20;;
22470;SDS011;11402;51.374;6.594;2023-04-03T16:47:23;3.50;;;1.70;;
22470;SDS011;11402;51.374;6.594;2023-04-03T16:49:49;6.57;;;1.48;;
22470;SDS011;11402;51.374;6.594;2023-04-03T16:52:14;2.95;;;1.55;;
22470;SDS011;11402;51.374;6.594;2023-04-03T16:54:40;6.68;;;1.40;;
22470;SDS011;11402;51.374;6.594;2023-04-03T16:57:06;5.05;;;1.60;;
22470;SDS011;11402;51.374;6.594;2023-04-03T16:59:31;4.45;;;1.55;;